Terminal Aerodrome Forecast
Issued by NWS

Home | Current Version | Previous Version | Text Only | Print | Product List | Glossary On
Versions: 1 2 3 4 5 6 7 8 9 10 11 12 13 14
000
FTAK31 PAJN 311100
TAFAWG
TAF
PAWG 311140Z 3112/0112 00000KT 1/4SM FG OVC002
     FM311600 VRB02KT 3SM BR FEW003
     FM311800 31005KT P6SM SCT150
     FM010300 27003KT P6SM SCT120
     FM010900 00000KT 2SM BR FEW002 SCT120
      TEMPO 0109/0112 1/2SM FG VV002
      AMD LTD TO CLD VIS AND WIND TIL 311500=

USA.gov is the U.S. government's official web portal to all federal, state and local government web resources and services.